sensor_id;sensor_type;location;lat;lon;timestamp;P1;durP1;ratioP1;P2;durP2;ratioP2
39452;SDS011;25154;-33.684;151.102;2023-03-31T00:00:36;2.33;;;1.00;;
39452;SDS011;25154;-33.684;151.102;2023-03-31T00:05:39;2.17;;;0.98;;
39452;SDS011;25154;-33.684;151.102;2023-03-31T00:10:47;4.60;;;0.98;;
39452;SDS011;25154;-33.684;151.102;2023-03-31T00:15:55;1.58;;;0.90;;
39452;SDS011;25154;-33.684;151.102;2023-03-31T00:21:07;2.88;;;1.05;;
39452;SDS011;25154;-33.684;151.102;2023-03-31T00:26:14;2.10;;;1.00;;
39452;SDS011;25154;-33.684;151.102;2023-03-31T00:31:16;2.22;;;1.00;;
39452;SDS011;25154;-33.684;151.102;2023-03-31T00:36:20;5.00;;;0.98;;
39452;SDS011;25154;-33.684;151.102;2023-03-31T00:41:29;2.88;;;0.98;;
39452;SDS011;25154;-33.684;151.102;2023-03-31T00:46:36;2.63;;;0.98;;
39452;SDS011;25154;-33.684;151.102;2023-03-31T00:51:47;3.20;;;0.98;;
39452;SDS011;25154;-33.684;151.102;2023-03-31T00:56:54;1.35;;;0.75;;
39452;SDS011;25154;-33.684;151.102;2023-03-31T01:01:58;1.73;;;0.82;;
39452;SDS011;25154;-33.684;151.102;2023-03-31T01:07:05;2.60;;;0.70;;
39452;SDS011;25154;-33.684;151.102;2023-03-31T01:12:33;1.55;;;0.80;;
39452;SDS011;25154;-33.684;151.102;2023-03-31T01:17:42;5.30;;;0.75;;
39452;SDS011;25154;-33.684;151.102;2023-03-31T01:28:22;3.47;;;0.85;;
39452;SDS011;25154;-33.684;151.102;2023-03-31T02:00:47;2.25;;;0.73;;
39452;SDS011;25154;-33.684;151.102;2023-03-31T02:05:57;6.43;;;0.77;;
39452;SDS011;25154;-33.684;151.102;2023-03-31T02:11:05;0.77;;;0.50;;
39452;SDS011;25154;-33.684;151.102;2023-03-31T02:16:09;2.60;;;0.70;;
39452;SDS011;25154;-33.684;151.102;2023-03-31T02:21:18;0.77;;;0.50;;
39452;SDS011;25154;-33.684;151.102;2023-03-31T02:26:27;0.47;;;0.45;;
39452;SDS011;25154;-33.684;151.102;2023-03-31T02:31:43;1.20;;;0.70;;
39452;SDS011;25154;-33.684;151.102;2023-03-31T02:37:01;1.02;;;0.50;;
39452;SDS011;25154;-33.684;151.102;2023-03-31T02:42:03;1.20;;;0.70;;
39452;SDS011;25154;-33.684;151.102;2023-03-31T02:47:10;1.75;;;0.57;;
39452;SDS011;25154;-33.684;151.102;2023-03-31T03:19:16;1.08;;;0.57;;
39452;SDS011;25154;-33.684;151.102;2023-03-31T03:24:20;2.15;;;0.68;;
39452;SDS011;25154;-33.684;151.102;2023-03-31T03:29:23;1.77;;;0.60;;
39452;SDS011;25154;-33.684;151.102;2023-03-31T03:34:26;0.85;;;0.60;;
39452;SDS011;25154;-33.684;151.102;2023-03-31T03:39:29;2.67;;;0.70;;
39452;SDS011;25154;-33.684;151.102;2023-03-31T03:44:34;1.53;;;0.70;;
39452;SDS011;25154;-33.684;151.102;2023-03-31T03:49:37;0.40;;;0.35;;
39452;SDS011;25154;-33.684;151.102;2023-03-31T03:54:39;0.65;;;0.50;;
39452;SDS011;25154;-33.684;151.102;2023-03-31T03:59:41;2.10;;;0.90;;
39452;SDS011;25154;-33.684;151.102;2023-03-31T04:04:44;0.85;;;0.50;;
39452;SDS011;25154;-33.684;151.102;2023-03-31T04:09:47;0.93;;;0.40;;
39452;SDS011;25154;-33.684;151.102;2023-03-31T04:14:49;1.33;;;0.50;;
39452;SDS011;25154;-33.684;151.102;2023-03-31T04:19:52;1.30;;;0.60;;
39452;SDS011;25154;-33.684;151.102;2023-03-31T04:24:54;0.90;;;0.60;;
39452;SDS011;25154;-33.684;151.102;2023-03-31T04:29:58;0.68;;;0.60;;
39452;SDS011;25154;-33.684;151.102;2023-03-31T04:35:03;1.73;;;0.60;;
39452;SDS011;25154;-33.684;151.102;2023-03-31T04:40:06;1.98;;;0.57;;
39452;SDS011;25154;-33.684;151.102;2023-03-31T04:45:10;0.45;;;0.40;;
39452;SDS011;25154;-33.684;151.102;2023-03-31T04:50:13;0.98;;;0.52;;
39452;SDS011;25154;-33.684;151.102;2023-03-31T04:55:15;0.93;;;0.60;;
39452;SDS011;25154;-33.684;151.102;2023-03-31T05:00:18;1.85;;;0.70;;
39452;SDS011;25154;-33.684;151.102;2023-03-31T05:05:21;1.08;;;0.65;;
39452;SDS011;25154;-33.684;151.102;2023-03-31T05:10:23;5.70;;;0.68;;
39452;SDS011;25154;-33.684;151.102;2023-03-31T05:15:26;0.60;;;0.40;;
39452;SDS011;25154;-33.684;151.102;2023-03-31T05:20:29;0.82;;;0.50;;
39452;SDS011;25154;-33.684;151.102;2023-03-31T05:25:31;6.72;;;0.95;;
39452;SDS011;25154;-33.684;151.102;2023-03-31T05:30:33;0.80;;;0.50;;
39452;SDS011;25154;-33.684;151.102;2023-03-31T05:35:36;0.80;;;0.60;;
39452;SDS011;25154;-33.684;151.102;2023-03-31T05:40:38;1.38;;;0.52;;
39452;SDS011;25154;-33.684;151.102;2023-03-31T05:45:41;1.40;;;0.70;;
39452;SDS011;25154;-33.684;151.102;2023-03-31T05:50:43;2.53;;;0.70;;
39452;SDS011;25154;-33.684;151.102;2023-03-31T05:55:45;2.17;;;0.85;;
39452;SDS011;25154;-33.684;151.102;2023-03-31T06:00:48;2.13;;;0.60;;
39452;SDS011;25154;-33.684;151.102;2023-03-31T06:05:53;0.85;;;0.60;;
39452;SDS011;25154;-33.684;151.102;2023-03-31T06:10:56;1.40;;;0.70;;
39452;SDS011;25154;-33.684;151.102;2023-03-31T06:15:59;1.52;;;0.68;;
39452;SDS011;25154;-33.684;151.102;2023-03-31T06:21:02;2.05;;;0.70;;
39452;SDS011;25154;-33.684;151.102;2023-03-31T06:26:06;2.38;;;0.80;;
39452;SDS011;25154;-33.684;151.102;2023-03-31T06:31:09;1.08;;;0.68;;
39452;SDS011;25154;-33.684;151.102;2023-03-31T06:36:14;1.55;;;0.50;;
39452;SDS011;25154;-33.684;151.102;2023-03-31T06:41:18;1.52;;;0.50;;
39452;SDS011;25154;-33.684;151.102;2023-03-31T06:46:21;4.70;;;0.93;;
39452;SDS011;25154;-33.684;151.102;2023-03-31T06:51:24;3.03;;;0.70;;
39452;SDS011;25154;-33.684;151.102;2023-03-31T06:56:26;3.45;;;1.00;;
39452;SDS011;25154;-33.684;151.102;2023-03-31T07:01:28;2.53;;;0.70;;
39452;SDS011;25154;-33.684;151.102;2023-03-31T07:06:31;4.13;;;0.73;;
39452;SDS011;25154;-33.684;151.102;2023-03-31T07:11:34;2.67;;;0.70;;
39452;SDS011;25154;-33.684;151.102;2023-03-31T07:16:36;3.65;;;0.70;;
39452;SDS011;25154;-33.684;151.102;2023-03-31T07:21:39;2.63;;;0.65;;
39452;SDS011;25154;-33.684;151.102;2023-03-31T07:26:41;2.03;;;0.80;;
39452;SDS011;25154;-33.684;151.102;2023-03-31T07:31:45;4.80;;;0.75;;
39452;SDS011;25154;-33.684;151.102;2023-03-31T07:36:48;1.75;;;0.73;;
39452;SDS011;25154;-33.684;151.102;2023-03-31T07:41:51;1.65;;;0.80;;
39452;SDS011;25154;-33.684;151.102;2023-03-31T07:46:54;0.82;;;0.60;;
39452;SDS011;25154;-33.684;151.102;2023-03-31T07:51:58;2.58;;;0.55;;
39452;SDS011;25154;-33.684;151.102;2023-03-31T07:57:01;2.83;;;0.70;;
39452;SDS011;25154;-33.684;151.102;2023-03-31T08:02:05;0.82;;;0.55;;
39452;SDS011;25154;-33.684;151.102;2023-03-31T08:07:11;1.02;;;0.63;;
39452;SDS011;25154;-33.684;151.102;2023-03-31T08:12:14;1.35;;;0.88;;
39452;SDS011;25154;-33.684;151.102;2023-03-31T08:17:17;2.90;;;1.15;;
39452;SDS011;25154;-33.684;151.102;2023-03-31T08:22:20;3.05;;;1.20;;
39452;SDS011;25154;-33.684;151.102;2023-03-31T08:27:23;6.07;;;1.88;;
39452;SDS011;25154;-33.684;151.102;2023-03-31T08:32:25;4.45;;;1.63;;
39452;SDS011;25154;-33.684;151.102;2023-03-31T08:37:28;4.32;;;1.88;;
39452;SDS011;25154;-33.684;151.102;2023-03-31T08:48:02;4.38;;;1.10;;
39452;SDS011;25154;-33.684;151.102;2023-03-31T08:58:43;4.60;;;1.70;;
39452;SDS011;25154;-33.684;151.102;2023-03-31T09:09:17;2.30;;;1.10;;
39452;SDS011;25154;-33.684;151.102;2023-03-31T09:14:41;1.95;;;1.00;;
39452;SDS011;25154;-33.684;151.102;2023-03-31T09:25:18;2.25;;;0.90;;
39452;SDS011;25154;-33.684;151.102;2023-03-31T09:30:32;1.83;;;0.90;;
39452;SDS011;25154;-33.684;151.102;2023-03-31T09:35:36;2.25;;;1.00;;
39452;SDS011;25154;-33.684;151.102;2023-03-31T09:40:40;2.28;;;1.10;;
39452;SDS011;25154;-33.684;151.102;2023-03-31T09:45:43;1.80;;;0.90;;
39452;SDS011;25154;-33.684;151.102;2023-03-31T09:50:51;2.03;;;0.90;;
39452;SDS011;25154;-33.684;151.102;2023-03-31T10:01:53;4.63;;;2.10;;
39452;SDS011;25154;-33.684;151.102;2023-03-31T10:07:03;2.28;;;0.82;;
39452;SDS011;25154;-33.684;151.102;2023-03-31T10:12:08;3.03;;;1.33;;
39452;SDS011;25154;-33.684;151.102;2023-03-31T10:17:21;3.30;;;1.10;;
39452;SDS011;25154;-33.684;151.102;2023-03-31T10:22:29;2.40;;;0.90;;
39452;SDS011;25154;-33.684;151.102;2023-03-31T10:27:32;1.70;;;0.82;;
39452;SDS011;25154;-33.684;151.102;2023-03-31T10:32:40;1.90;;;1.00;;
39452;SDS011;25154;-33.684;151.102;2023-03-31T10:37:44;3.85;;;1.30;;
39452;SDS011;25154;-33.684;151.102;2023-03-31T10:43:02;2.17;;;0.90;;
39452;SDS011;25154;-33.684;151.102;2023-03-31T10:48:27;2.03;;;1.08;;
39452;SDS011;25154;-33.684;151.102;2023-03-31T10:53:40;2.20;;;0.80;;
39452;SDS011;25154;-33.684;151.102;2023-03-31T11:15:10;3.15;;;0.80;;
39452;SDS011;25154;-33.684;151.102;2023-03-31T11:26:09;1.55;;;0.80;;
39452;SDS011;25154;-33.684;151.102;2023-03-31T11:31:35;2.67;;;1.02;;
39452;SDS011;25154;-33.684;151.102;2023-03-31T11:42:02;2.03;;;1.00;;
39452;SDS011;25154;-33.684;151.102;2023-03-31T11:47:16;2.60;;;0.90;;
39452;SDS011;25154;-33.684;151.102;2023-03-31T11:52:26;1.98;;;0.90;;
39452;SDS011;25154;-33.684;151.102;2023-03-31T11:57:51;3.13;;;1.10;;
39452;SDS011;25154;-33.684;151.102;2023-03-31T12:08:15;2.88;;;1.00;;
39452;SDS011;25154;-33.684;151.102;2023-03-31T12:23:52;1.67;;;0.80;;
39452;SDS011;25154;-33.684;151.102;2023-03-31T12:28:57;2.67;;;1.00;;
39452;SDS011;25154;-33.684;151.102;2023-03-31T12:34:06;1.30;;;0.80;;
39452;SDS011;25154;-33.684;151.102;2023-03-31T12:50:27;2.58;;;0.98;;
39452;SDS011;25154;-33.684;151.102;2023-03-31T13:01:00;2.08;;;0.95;;
39452;SDS011;25154;-33.684;151.102;2023-03-31T13:06:04;1.83;;;1.10;;
39452;SDS011;25154;-33.684;151.102;2023-03-31T13:11:10;1.58;;;0.90;;
39452;SDS011;25154;-33.684;151.102;2023-03-31T13:16:17;2.83;;;0.98;;
39452;SDS011;25154;-33.684;151.102;2023-03-31T13:21:21;1.25;;;0.80;;
39452;SDS011;25154;-33.684;151.102;2023-03-31T13:26:37;2.15;;;0.90;;
39452;SDS011;25154;-33.684;151.102;2023-03-31T13:53:08;1.92;;;1.00;;
39452;SDS011;25154;-33.684;151.102;2023-03-31T13:58:30;1.95;;;0.88;;
39452;SDS011;25154;-33.684;151.102;2023-03-31T14:09:44;3.42;;;1.20;;
39452;SDS011;25154;-33.684;151.102;2023-03-31T14:14:52;2.10;;;1.02;;
39452;SDS011;25154;-33.684;151.102;2023-03-31T14:30:33;2.80;;;1.17;;
39452;SDS011;25154;-33.684;151.102;2023-03-31T14:41:25;1.90;;;1.00;;
39452;SDS011;25154;-33.684;151.102;2023-03-31T14:46:31;4.82;;;1.73;;
39452;SDS011;25154;-33.684;151.102;2023-03-31T14:51:41;3.08;;;1.50;;
39452;SDS011;25154;-33.684;151.102;2023-03-31T14:56:49;4.53;;;1.50;;
39452;SDS011;25154;-33.684;151.102;2023-03-31T15:01:56;2.92;;;1.38;;
39452;SDS011;25154;-33.684;151.102;2023-03-31T15:07:00;3.60;;;1.23;;
39452;SDS011;25154;-33.684;151.102;2023-03-31T15:12:09;2.67;;;1.17;;
39452;SDS011;25154;-33.684;151.102;2023-03-31T15:17:19;3.28;;;1.35;;
39452;SDS011;25154;-33.684;151.102;2023-03-31T15:27:35;3.47;;;1.27;;
39452;SDS011;25154;-33.684;151.102;2023-03-31T15:37:44;2.45;;;1.10;;
39452;SDS011;25154;-33.684;151.102;2023-03-31T15:42:48;1.83;;;0.98;;
39452;SDS011;25154;-33.684;151.102;2023-03-31T15:47:58;2.80;;;1.20;;
39452;SDS011;25154;-33.684;151.102;2023-03-31T15:53:18;3.85;;;1.30;;
39452;SDS011;25154;-33.684;151.102;2023-03-31T15:58:45;2.03;;;1.17;;
39452;SDS011;25154;-33.684;151.102;2023-03-31T16:03:54;4.47;;;1.15;;
39452;SDS011;25154;-33.684;151.102;2023-03-31T16:08:59;3.58;;;1.30;;
39452;SDS011;25154;-33.684;151.102;2023-03-31T16:14:07;3.83;;;1.20;;
39452;SDS011;25154;-33.684;151.102;2023-03-31T16:19:40;2.47;;;0.95;;
39452;SDS011;25154;-33.684;151.102;2023-03-31T16:24:51;2.85;;;1.25;;
39452;SDS011;25154;-33.684;151.102;2023-03-31T16:30:15;3.28;;;1.40;;
39452;SDS011;25154;-33.684;151.102;2023-03-31T16:35:17;3.28;;;1.25;;
39452;SDS011;25154;-33.684;151.102;2023-03-31T16:40:20;2.13;;;1.15;;
39452;SDS011;25154;-33.684;151.102;2023-03-31T16:45:22;3.78;;;1.30;;
39452;SDS011;25154;-33.684;151.102;2023-03-31T16:50:25;2.40;;;1.20;;
39452;SDS011;25154;-33.684;151.102;2023-03-31T16:55:28;2.40;;;1.15;;
39452;SDS011;25154;-33.684;151.102;2023-03-31T17:00:34;2.93;;;1.10;;
39452;SDS011;25154;-33.684;151.102;2023-03-31T17:05:43;3.15;;;1.35;;
39452;SDS011;25154;-33.684;151.102;2023-03-31T17:10:51;2.08;;;1.10;;
39452;SDS011;25154;-33.684;151.102;2023-03-31T17:15:55;2.42;;;1.00;;
39452;SDS011;25154;-33.684;151.102;2023-03-31T17:21:16;3.45;;;1.20;;
39452;SDS011;25154;-33.684;151.102;2023-03-31T17:26:19;5.03;;;1.40;;
39452;SDS011;25154;-33.684;151.102;2023-03-31T17:31:22;3.15;;;1.10;;
39452;SDS011;25154;-33.684;151.102;2023-03-31T17:36:24;3.42;;;1.70;;
39452;SDS011;25154;-33.684;151.102;2023-03-31T17:41:27;3.95;;;1.13;;
39452;SDS011;25154;-33.684;151.102;2023-03-31T17:46:29;3.28;;;1.20;;
39452;SDS011;25154;-33.684;151.102;2023-03-31T17:51:31;2.03;;;1.05;;
39452;SDS011;25154;-33.684;151.102;2023-03-31T17:56:35;1.45;;;1.05;;
39452;SDS011;25154;-33.684;151.102;2023-03-31T18:01:38;3.63;;;1.17;;
39452;SDS011;25154;-33.684;151.102;2023-03-31T18:06:41;3.63;;;1.15;;
39452;SDS011;25154;-33.684;151.102;2023-03-31T18:11:44;2.60;;;1.15;;
39452;SDS011;25154;-33.684;151.102;2023-03-31T18:16:46;2.05;;;1.02;;
39452;SDS011;25154;-33.684;151.102;2023-03-31T18:21:49;5.70;;;1.10;;
39452;SDS011;25154;-33.684;151.102;2023-03-31T18:26:51;2.85;;;1.20;;
39452;SDS011;25154;-33.684;151.102;2023-03-31T18:31:53;2.50;;;1.02;;
39452;SDS011;25154;-33.684;151.102;2023-03-31T18:36:56;2.83;;;1.10;;
39452;SDS011;25154;-33.684;151.102;2023-03-31T18:41:58;5.35;;;1.25;;
39452;SDS011;25154;-33.684;151.102;2023-03-31T18:47:01;2.55;;;1.45;;
39452;SDS011;25154;-33.684;151.102;2023-03-31T18:52:03;2.35;;;1.17;;
39452;SDS011;25154;-33.684;151.102;2023-03-31T18:57:05;2.25;;;0.98;;
39452;SDS011;25154;-33.684;151.102;2023-03-31T19:02:09;3.05;;;1.13;;
39452;SDS011;25154;-33.684;151.102;2023-03-31T19:07:14;2.75;;;1.13;;
39452;SDS011;25154;-33.684;151.102;2023-03-31T19:12:17;4.13;;;1.00;;
39452;SDS011;25154;-33.684;151.102;2023-03-31T19:17:19;4.45;;;1.25;;
39452;SDS011;25154;-33.684;151.102;2023-03-31T19:22:21;1.90;;;1.10;;
39452;SDS011;25154;-33.684;151.102;2023-03-31T19:27:25;2.92;;;1.23;;
39452;SDS011;25154;-33.684;151.102;2023-03-31T19:32:27;4.57;;;1.20;;
39452;SDS011;25154;-33.684;151.102;2023-03-31T19:37:29;1.75;;;1.00;;
39452;SDS011;25154;-33.684;151.102;2023-03-31T19:42:32;1.90;;;1.00;;
39452;SDS011;25154;-33.684;151.102;2023-03-31T19:47:35;1.45;;;0.85;;
39452;SDS011;25154;-33.684;151.102;2023-03-31T19:52:38;3.85;;;1.27;;
39452;SDS011;25154;-33.684;151.102;2023-03-31T19:57:40;3.45;;;1.20;;
39452;SDS011;25154;-33.684;151.102;2023-03-31T20:02:43;2.72;;;1.10;;
39452;SDS011;25154;-33.684;151.102;2023-03-31T20:07:46;3.83;;;1.15;;
39452;SDS011;25154;-33.684;151.102;2023-03-31T20:12:48;2.42;;;1.05;;
39452;SDS011;25154;-33.684;151.102;2023-03-31T20:17:51;1.65;;;0.90;;
39452;SDS011;25154;-33.684;151.102;2023-03-31T20:22:56;2.55;;;1.15;;
39452;SDS011;25154;-33.684;151.102;2023-03-31T20:27:59;2.30;;;1.20;;
39452;SDS011;25154;-33.684;151.102;2023-03-31T20:33:01;2.55;;;1.13;;
39452;SDS011;25154;-33.684;151.102;2023-03-31T20:38:04;1.58;;;1.05;;
39452;SDS011;25154;-33.684;151.102;2023-03-31T20:43:06;2.38;;;1.10;;
39452;SDS011;25154;-33.684;151.102;2023-03-31T20:48:09;3.08;;;1.30;;
39452;SDS011;25154;-33.684;151.102;2023-03-31T20:53:11;4.32;;;1.23;;
39452;SDS011;25154;-33.684;151.102;2023-03-31T20:58:13;3.72;;;1.20;;
39452;SDS011;25154;-33.684;151.102;2023-03-31T21:03:16;3.63;;;1.30;;
39452;SDS011;25154;-33.684;151.102;2023-03-31T21:08:18;5.13;;;1.40;;
39452;SDS011;25154;-33.684;151.102;2023-03-31T21:13:21;3.10;;;1.38;;
39452;SDS011;25154;-33.684;151.102;2023-03-31T21:18:24;3.03;;;1.25;;
39452;SDS011;25154;-33.684;151.102;2023-03-31T21:23:27;3.83;;;1.20;;
39452;SDS011;25154;-33.684;151.102;2023-03-31T21:28:31;2.83;;;1.40;;
39452;SDS011;25154;-33.684;151.102;2023-03-31T21:33:37;2.67;;;1.40;;
39452;SDS011;25154;-33.684;151.102;2023-03-31T21:38:41;1.83;;;0.95;;
39452;SDS011;25154;-33.684;151.102;2023-03-31T21:43:44;2.40;;;1.02;;
39452;SDS011;25154;-33.684;151.102;2023-03-31T21:48:48;4.38;;;1.08;;
39452;SDS011;25154;-33.684;151.102;2023-03-31T21:53:50;2.50;;;1.10;;
39452;SDS011;25154;-33.684;151.102;2023-03-31T21:58:54;3.35;;;1.35;;
39452;SDS011;25154;-33.684;151.102;2023-03-31T22:03:57;2.88;;;1.20;;
39452;SDS011;25154;-33.684;151.102;2023-03-31T22:08:59;4.07;;;1.15;;
39452;SDS011;25154;-33.684;151.102;2023-03-31T22:14:02;5.30;;;1.15;;
39452;SDS011;25154;-33.684;151.102;2023-03-31T22:19:05;5.55;;;1.40;;
39452;SDS011;25154;-33.684;151.102;2023-03-31T22:24:09;5.00;;;1.30;;
39452;SDS011;25154;-33.684;151.102;2023-03-31T22:29:14;3.00;;;1.40;;
39452;SDS011;25154;-33.684;151.102;2023-03-31T22:34:16;5.40;;;1.20;;
39452;SDS011;25154;-33.684;151.102;2023-03-31T22:39:21;2.83;;;1.27;;
39452;SDS011;25154;-33.684;151.102;2023-03-31T22:44:24;3.60;;;1.20;;
39452;SDS011;25154;-33.684;151.102;2023-03-31T22:49:26;2.92;;;1.20;;
39452;SDS011;25154;-33.684;151.102;2023-03-31T22:54:33;2.72;;;1.20;;
39452;SDS011;25154;-33.684;151.102;2023-03-31T22:59:36;4.57;;;1.80;;
39452;SDS011;25154;-33.684;151.102;2023-03-31T23:04:38;3.42;;;1.35;;
39452;SDS011;25154;-33.684;151.102;2023-03-31T23:09:40;4.25;;;1.30;;
39452;SDS011;25154;-33.684;151.102;2023-03-31T23:14:43;2.90;;;1.27;;
39452;SDS011;25154;-33.684;151.102;2023-03-31T23:19:45;4.07;;;1.33;;
39452;SDS011;25154;-33.684;151.102;2023-03-31T23:24:48;3.75;;;1.25;;
39452;SDS011;25154;-33.684;151.102;2023-03-31T23:29:51;3.92;;;1.10;;
39452;SDS011;25154;-33.684;151.102;2023-03-31T23:34:53;5.68;;;1.30;;
39452;SDS011;25154;-33.684;151.102;2023-03-31T23:39:55;3.63;;;1.40;;
39452;SDS011;25154;-33.684;151.102;2023-03-31T23:44:58;3.08;;;1.05;;
39452;SDS011;25154;-33.684;151.102;2023-03-31T23:50:00;5.15;;;1.10;;
39452;SDS011;25154;-33.684;151.102;2023-03-31T23:55:04;2.92;;;0.90;;
